Time;durP1;ratioP1;P1;durP2;ratioP2;P2;SDS_P1;SDS_P2;PMS_P1;PMS_P2;Temp;Humidity;BMP_temperature;BMP_pressure;BME280_temperature;BME280_humidity;BME280_pressure;Samples;Min_cycle;Max_cycle;Signal;HPM_P1;HPM_P2
2024/03/03 00:01:22;;;;;;;14.70;13.20;;;9.70;40.50;;;;;;10473189;28;20236;-75
2024/03/03 00:06:26;;;;;;;15.30;13.53;;;9.70;40.40;;;;;;10478582;28;20224;-75
2024/03/03 00:11:30;;;;;;;14.27;12.87;;;9.60;40.50;;;;;;10470797;28;20319;-75
2024/03/03 00:16:34;;;;;;;13.67;12.37;;;9.60;40.50;;;;;;10467253;28;20234;-76
2024/03/03 00:21:37;;;;;;;12.70;11.00;;;9.50;40.50;;;;;;10462872;28;20224;-75
2024/03/03 00:26:41;;;;;;;14.47;12.83;;;9.50;40.50;;;;;;10472084;28;20227;-75
2024/03/03 00:31:45;;;;;;;15.47;13.80;;;9.40;40.40;;;;;;10474436;28;20229;-75
2024/03/03 00:36:48;;;;;;;14.90;13.40;;;9.40;40.40;;;;;;10469933;28;20232;-75
2024/03/03 00:41:52;;;;;;;15.60;13.93;;;9.40;40.40;;;;;;10468259;28;20289;-74
2024/03/03 00:46:56;;;;;;;15.20;13.17;;;9.30;40.30;;;;;;10471388;28;20343;-75
2024/03/03 00:51:59;;;;;;;11.63;10.43;;;9.30;40.30;;;;;;10475857;28;20247;-74
2024/03/03 00:57:05;;;;;;;13.30;10.63;;;9.30;40.30;;;;;;10468594;28;20224;-74
2024/03/03 01:02:09;;;;;;;14.10;10.27;;;9.20;40.20;;;;;;10475154;28;20722;-75
2024/03/03 01:07:12;;;;;;;7.77;7.07;;;9.20;40.20;;;;;;10469632;28;20234;-74
2024/03/03 01:12:17;;;;;;;13.53;6.80;;;9.10;40.10;;;;;;10470322;28;20725;-75
2024/03/03 01:17:21;;;;;;;6.23;5.73;;;9.00;40.20;;;;;;10474029;28;20229;-74
2024/03/03 01:22:24;;;;;;;8.50;5.70;;;9.00;40.10;;;;;;10474258;28;20294;-75
2024/03/03 01:27:29;;;;;;;6.20;5.70;;;8.90;40.00;;;;;;10473823;28;20235;-75
2024/03/03 01:32:32;;;;;;;6.13;5.63;;;8.80;39.90;;;;;;10474907;28;20260;-75
2024/03/03 01:37:35;;;;;;;35.87;6.30;;;8.80;39.90;;;;;;10471557;28;20247;-74
2024/03/03 01:42:40;;;;;;;6.53;6.03;;;8.70;39.80;;;;;;10462278;28;20224;-75
2024/03/03 01:47:43;;;;;;;6.27;5.70;;;8.60;39.70;;;;;;10469156;28;21514;-75
2024/03/03 01:52:49;;;;;;;8.67;7.87;;;8.60;39.80;;;;;;10469390;28;20597;-74
2024/03/03 01:58:00;;;;;;;8.03;7.23;;;8.50;40.00;;;;;;10472072;28;20220;-75
2024/03/03 02:03:05;;;;;;;9.90;7.60;;;8.50;40.20;;;;;;10471168;28;20677;-74
2024/03/03 02:08:10;;;;;;;51.13;7.40;;;8.40;40.10;;;;;;10477020;28;20240;-75
2024/03/03 02:13:16;;;;;;;31.10;7.57;;;8.40;39.90;;;;;;10471753;28;20248;-75
2024/03/03 02:18:19;;;;;;;8.40;7.70;;;8.30;40.10;;;;;;10469610;28;20224;-75
2024/03/03 02:23:24;;;;;;;8.87;8.03;;;8.20;40.20;;;;;;10472457;28;20591;-74
2024/03/03 02:28:28;;;;;;;9.33;8.20;;;8.20;40.70;;;;;;10476852;28;20223;-75
2024/03/03 02:33:33;;;;;;;12.77;8.40;;;8.10;40.40;;;;;;10474466;28;20750;-75
2024/03/03 02:38:37;;;;;;;10.70;7.47;;;8.10;40.40;;;;;;10472643;28;20224;-75
2024/03/03 02:43:41;;;;;;;12.97;7.90;;;8.00;40.30;;;;;;10472029;28;20705;-75
2024/03/03 02:48:44;;;;;;;80.43;8.60;;;8.00;40.30;;;;;;10474431;28;20232;-75
2024/03/03 02:53:48;;;;;;;7.33;6.80;;;8.00;40.20;;;;;;10467991;28;20320;-75
2024/03/03 02:58:51;;;;;;;10.07;7.77;;;7.90;40.30;;;;;;10473475;28;20712;-75
2024/03/03 03:03:54;;;;;;;8.13;7.43;;;7.80;40.40;;;;;;10476625;28;20326;-75
2024/03/03 03:08:59;;;;;;;8.30;7.70;;;7.80;40.50;;;;;;10479886;28;20248;-75
2024/03/03 03:14:02;;;;;;;6.97;6.47;;;7.80;40.70;;;;;;10473333;28;20339;-75
2024/03/03 03:19:06;;;;;;;9.50;8.60;;;7.70;40.40;;;;;;10475554;28;20233;-75
2024/03/03 03:24:12;;;;;;;8.90;8.20;;;7.70;40.50;;;;;;10477731;28;20223;-75
2024/03/03 03:29:15;;;;;;;9.43;8.63;;;7.70;40.70;;;;;;10480621;28;20242;-75
2024/03/03 03:34:18;;;;;;;9.30;8.53;;;7.70;40.60;;;;;;10478948;28;20221;-75
2024/03/03 03:39:23;;;;;;;9.27;8.47;;;7.70;40.60;;;;;;10477964;28;21325;-75
2024/03/03 03:44:27;;;;;;;8.67;7.97;;;7.60;40.60;;;;;;10479675;28;20991;-75
2024/03/03 03:49:30;;;;;;;9.33;8.53;;;7.60;40.50;;;;;;10477491;28;20608;-75
2024/03/03 03:54:34;;;;;;;9.70;8.90;;;7.60;40.60;;;;;;10477150;28;20254;-75
2024/03/03 03:59:37;;;;;;;9.40;8.60;;;7.60;40.90;;;;;;10477733;28;20624;-75
2024/03/03 04:04:41;;;;;;;11.20;10.27;;;7.50;40.70;;;;;;10484977;28;20375;-75
2024/03/03 04:09:45;;;;;;;11.53;10.47;;;7.60;40.90;;;;;;10474334;28;20725;-75
2024/03/03 04:14:48;;;;;;;10.13;9.23;;;7.60;41.00;;;;;;10479817;28;20260;-75
2024/03/03 04:19:52;;;;;;;11.37;10.00;;;7.60;40.90;;;;;;10473526;28;20232;-75
2024/03/03 04:24:56;;;;;;;10.77;9.77;;;7.60;40.90;;;;;;10476105;28;20235;-75
2024/03/03 04:29:59;;;;;;;10.40;9.50;;;7.60;41.00;;;;;;10478546;28;20256;-75
2024/03/03 04:35:03;;;;;;;9.33;8.57;;;7.50;40.90;;;;;;10477756;28;20313;-75
2024/03/03 04:40:09;;;;;;;9.27;8.57;;;7.50;40.80;;;;;;10475444;28;20319;-75
2024/03/03 04:45:12;;;;;;;8.10;7.50;;;7.50;40.90;;;;;;10477202;28;20268;-74
2024/03/03 04:50:15;;;;;;;9.33;8.53;;;7.50;40.70;;;;;;10470537;28;20232;-74
2024/03/03 04:55:20;;;;;;;9.57;8.77;;;7.50;40.60;;;;;;10474415;28;20247;-74
2024/03/03 05:00:24;;;;;;;10.17;8.80;;;7.40;40.60;;;;;;10474176;28;20224;-74
2024/03/03 05:05:27;;;;;;;8.67;7.87;;;7.40;40.60;;;;;;10467870;28;20718;-74
2024/03/03 05:10:32;;;;;;;9.80;7.90;;;7.40;40.60;;;;;;10472882;28;20228;-74
2024/03/03 05:15:35;;;;;;;10.83;7.50;;;7.30;40.60;;;;;;10474305;28;20657;-75
2024/03/03 05:20:38;;;;;;;8.00;7.30;;;7.30;40.60;;;;;;10477454;28;20644;-74
2024/03/03 05:25:43;;;;;;;8.70;7.90;;;7.20;40.70;;;;;;10473230;28;20317;-74
2024/03/03 05:30:46;;;;;;;42.97;8.73;;;7.20;40.70;;;;;;10474556;28;20312;-74
2024/03/03 05:35:49;;;;;;;30.13;9.03;;;7.10;40.60;;;;;;10473060;28;20280;-74
2024/03/03 05:40:54;;;;;;;16.23;9.93;;;7.10;40.60;;;;;;10470143;28;20234;-74
2024/03/03 05:45:57;;;;;;;12.03;10.07;;;7.10;40.90;;;;;;10467984;28;20232;-74
2024/03/03 05:51:00;;;;;;;21.97;10.13;;;7.00;40.80;;;;;;10479546;28;20312;-74
2024/03/03 05:56:05;;;;;;;31.40;10.83;;;7.00;41.10;;;;;;10468580;28;20629;-75
2024/03/03 06:01:09;;;;;;;39.17;11.57;;;7.00;41.40;;;;;;10472967;28;20239;-74
2024/03/03 06:06:13;;;;;;;24.40;11.83;;;7.00;41.30;;;;;;10478883;28;20237;-74
2024/03/03 06:11:19;;;;;;;32.13;11.70;;;7.00;41.30;;;;;;10472293;28;20244;-74
2024/03/03 06:16:23;;;;;;;15.07;10.87;;;7.00;41.60;;;;;;10474835;28;20230;-74
2024/03/03 06:21:26;;;;;;;62.47;11.40;;;7.00;41.60;;;;;;10475982;28;20225;-74
2024/03/03 06:26:33;;;;;;;18.70;10.90;;;7.00;41.60;;;;;;10470792;28;20229;-75
2024/03/03 06:31:36;;;;;;;28.83;10.97;;;7.00;42.00;;;;;;10475204;28;20600;-73
2024/03/03 06:36:39;;;;;;;11.43;10.43;;;7.10;41.80;;;;;;10469692;28;20246;-74
2024/03/03 06:41:44;;;;;;;11.43;10.30;;;7.10;41.90;;;;;;10469067;28;20228;-75
2024/03/03 06:46:48;;;;;;;12.80;10.57;;;7.10;42.00;;;;;;10468508;28;20302;-74
2024/03/03 06:51:51;;;;;;;18.13;10.00;;;7.10;41.80;;;;;;10466792;28;20234;-74
2024/03/03 06:56:55;;;;;;;14.73;10.03;;;7.10;41.90;;;;;;10473641;28;20261;-74
2024/03/03 07:01:58;;;;;;;11.87;10.53;;;7.10;42.10;;;;;;10471121;28;20227;-74
2024/03/03 07:07:02;;;;;;;15.17;10.40;;;7.10;42.00;;;;;;10468527;28;20224;-74
2024/03/03 07:12:08;;;;;;;12.57;10.40;;;7.20;42.00;;;;;;10471278;28;20233;-74
2024/03/03 07:17:11;;;;;;;32.20;11.33;;;7.20;42.30;;;;;;10467999;28;20308;-74
2024/03/03 07:22:15;;;;;;;12.10;10.90;;;7.20;42.10;;;;;;10471031;28;20256;-74
2024/03/03 07:27:20;;;;;;;13.00;11.57;;;7.20;42.10;;;;;;10460805;28;20270;-74
2024/03/03 07:32:23;;;;;;;11.30;10.30;;;7.30;42.50;;;;;;10463929;28;20235;-74
2024/03/03 07:37:27;;;;;;;12.83;11.63;;;7.30;42.50;;;;;;10465976;28;20693;-75
2024/03/03 07:42:31;;;;;;;12.57;11.37;;;7.40;42.60;;;;;;10471044;28;20236;-75
2024/03/03 07:47:34;;;;;;;12.00;10.90;;;7.40;43.00;;;;;;10470378;28;20231;-76
2024/03/03 07:52:38;;;;;;;14.67;13.23;;;7.50;43.10;;;;;;10479823;28;20228;-75
2024/03/03 07:57:42;;;;;;;13.60;12.20;;;7.60;43.40;;;;;;10473504;28;20668;-75
2024/03/03 08:02:45;;;;;;;16.17;14.57;;;7.70;44.20;;;;;;10476788;28;20723;-76
2024/03/03 08:07:48;;;;;;;15.63;13.93;;;7.90;44.50;;;;;;10462840;28;20685;-75
2024/03/03 08:12:54;;;;;;;15.40;13.80;;;8.10;45.30;;;;;;10472574;28;20220;-75
2024/03/03 08:17:58;;;;;;;15.13;13.63;;;8.30;45.50;;;;;;10476071;28;20227;-78
2024/03/03 08:23:04;;;;;;;15.30;13.80;;;8.50;45.40;;;;;;10474495;28;20232;-78
2024/03/03 08:28:09;;;;;;;15.63;14.00;;;8.80;45.80;;;;;;10470419;28;20270;-76
2024/03/03 08:33:13;;;;;;;15.90;14.30;;;9.00;46.40;;;;;;10476701;28;20235;-76
2024/03/03 08:38:16;;;;;;;14.97;13.47;;;9.30;46.20;;;;;;10466310;28;20229;-77
2024/03/03 08:43:20;;;;;;;15.77;14.03;;;9.60;46.10;;;;;;10483616;28;20316;-77
2024/03/03 08:48:24;;;;;;;14.63;13.13;;;9.90;46.40;;;;;;10482530;28;20239;-76
2024/03/03 08:53:27;;;;;;;14.70;13.00;;;10.30;45.50;;;;;;10478343;28;20254;-77
2024/03/03 08:58:32;;;;;;;15.37;13.77;;;10.60;45.70;;;;;;10471355;28;20225;-77
2024/03/03 09:03:36;;;;;;;14.37;12.97;;;11.00;46.00;;;;;;10473945;28;20239;-78
2024/03/03 09:08:40;;;;;;;13.47;12.07;;;11.40;45.30;;;;;;10480186;28;20331;-78
2024/03/03 09:13:45;;;;;;;13.33;12.00;;;11.70;45.30;;;;;;10474284;28;20236;-77
2024/03/03 09:18:49;;;;;;;11.83;10.57;;;12.00;45.20;;;;;;10475453;28;20262;-78
2024/03/03 09:23:52;;;;;;;8.40;7.60;;;12.40;44.80;;;;;;10484324;28;20228;-77
2024/03/03 09:28:57;;;;;;;9.13;7.60;;;12.70;43.10;;;;;;10476679;28;20289;-77
2024/03/03 09:34:01;;;;;;;8.13;7.30;;;13.00;42.60;;;;;;10476497;28;21024;-79
2024/03/03 09:39:05;;;;;;;7.80;6.97;;;13.30;42.80;;;;;;10480129;28;20221;-79
2024/03/03 09:44:16;;;;;;;6.70;6.13;;;13.50;42.20;;;;;;10472526;28;20335;-79
2024/03/03 09:49:21;;;;;;;6.40;5.80;;;13.70;41.50;;;;;;10474091;28;20797;-77
2024/03/03 09:54:25;;;;;;;7.23;6.53;;;14.00;41.70;;;;;;10479571;28;20721;-79
2024/03/03 09:59:30;;;;;;;6.40;5.80;;;14.10;41.20;;;;;;10467023;28;20232;-79
2024/03/03 10:04:35;;;;;;;5.93;5.40;;;14.40;40.80;;;;;;10468967;28;20243;-79
2024/03/03 10:09:40;;;;;;;6.07;5.47;;;14.50;40.60;;;;;;10466686;28;20334;-78
2024/03/03 10:14:47;;;;;;;5.90;5.30;;;14.70;41.00;;;;;;10480015;28;20224;-79
2024/03/03 10:20:07;;;;;;;4.97;4.57;;;14.80;39.10;;;;;;10471931;28;20228;-78
2024/03/03 10:25:12;;;;;;;5.10;4.70;;;14.90;39.30;;;;;;10477477;28;20706;-78
2024/03/03 10:30:20;;;;;;;5.47;5.03;;;15.00;39.40;;;;;;10481686;28;20611;-80
2024/03/03 10:35:23;;;;;;;5.30;4.80;;;15.10;38.20;;;;;;10483207;28;20248;-78
2024/03/03 10:40:27;;;;;;;5.30;4.80;;;15.20;39.00;;;;;;10475334;28;20232;-78
2024/03/03 10:45:32;;;;;;;4.80;4.40;;;15.30;38.80;;;;;;10480566;28;20239;-78
2024/03/03 10:50:36;;;;;;;4.83;4.43;;;15.40;38.30;;;;;;10485311;28;20239;-78
2024/03/03 10:55:41;;;;;;;5.37;4.37;;;15.60;38.70;;;;;;10476697;28;20824;-79
2024/03/03 11:00:46;;;;;;;5.13;4.03;;;15.70;38.10;;;;;;10471539;28;20568;-77
2024/03/03 11:05:52;;;;;;;4.03;3.73;;;15.80;36.90;;;;;;10478070;28;20224;-78
2024/03/03 11:11:03;;;;;;;4.00;3.70;;;15.90;36.60;;;;;;10465631;28;20230;-78
2024/03/03 11:16:10;;;;;;;4.40;4.00;;;16.00;36.90;;;;;;10472308;28;20224;-78
2024/03/03 11:21:19;;;;;;;3.87;3.57;;;16.10;36.90;;;;;;10475607;28;20231;-79
2024/03/03 11:26:28;;;;;;;4.07;3.60;;;16.20;36.10;;;;;;10485038;28;20773;-78
2024/03/03 11:31:33;;;;;;;4.03;3.73;;;16.30;36.50;;;;;;10484339;28;20285;-77
2024/03/03 11:36:37;;;;;;;3.43;3.20;;;16.50;36.70;;;;;;10479615;28;20592;-77
2024/03/03 11:41:41;;;;;;;5.17;3.20;;;16.80;36.90;;;;;;10476043;28;20603;-77
2024/03/03 11:46:49;;;;;;;2.83;2.63;;;16.80;37.00;;;;;;10480428;28;20225;-77
2024/03/03 11:51:53;;;;;;;4.57;4.17;;;16.90;35.60;;;;;;10473870;28;20319;-77
2024/03/03 11:56:58;;;;;;;3.77;3.47;;;17.10;37.00;;;;;;10475357;28;20232;-77
2024/03/03 12:02:05;;;;;;;3.10;2.90;;;17.20;35.90;;;;;;10475969;28;21131;-77
2024/03/03 12:07:14;;;;;;;3.60;3.03;;;17.30;34.90;;;;;;10476032;28;20227;-77
2024/03/03 12:12:18;;;;;;;3.47;2.93;;;17.40;35.60;;;;;;10482467;28;20224;-77
2024/03/03 12:17:24;;;;;;;3.20;2.90;;;17.40;36.10;;;;;;10483034;28;20301;-77
2024/03/03 12:22:27;;;;;;;3.07;2.87;;;17.50;34.30;;;;;;10482886;28;20252;-77
2024/03/03 12:27:30;;;;;;;2.70;2.50;;;17.50;35.30;;;;;;10482510;28;20247;-78
2024/03/03 12:32:36;;;;;;;2.70;2.50;;;17.60;35.40;;;;;;10483211;28;20235;-77
2024/03/03 12:37:39;;;;;;;2.87;2.60;;;17.60;34.40;;;;;;10473700;28;20225;-76
2024/03/03 12:42:43;;;;;;;3.20;2.53;;;17.70;34.90;;;;;;10476122;28;20753;-76
2024/03/03 12:47:49;;;;;;;2.27;2.07;;;17.80;35.50;;;;;;10479058;28;20585;-76
2024/03/03 12:52:53;;;;;;;3.20;2.90;;;18.00;34.70;;;;;;10475578;28;20224;-76
2024/03/03 12:57:57;;;;;;;2.50;1.90;;;18.10;35.10;;;;;;10482231;28;20299;-76
2024/03/03 13:03:02;;;;;;;2.23;2.00;;;18.30;35.00;;;;;;10477875;28;20224;-75
2024/03/03 13:08:05;;;;;;;2.20;1.77;;;18.50;33.70;;;;;;10479006;28;20228;-76
2024/03/03 13:13:10;;;;;;;1.57;1.47;;;18.60;33.60;;;;;;10473674;28;20771;-75
2024/03/03 13:18:15;;;;;;;1.90;1.70;;;18.80;32.90;;;;;;10479125;28;20321;-74
2024/03/03 13:23:20;;;;;;;1.60;1.50;;;19.00;31.60;;;;;;10484450;28;20384;-73
2024/03/03 13:28:23;;;;;;;1.70;1.60;;;19.00;32.00;;;;;;10484418;28;20223;-74
2024/03/03 13:33:31;;;;;;;1.57;1.40;;;19.10;31.80;;;;;;10479292;28;20294;-74
2024/03/03 13:38:35;;;;;;;2.30;2.10;;;19.10;30.90;;;;;;10476312;28;20600;-74
2024/03/03 13:43:38;;;;;;;2.53;1.80;;;19.20;31.80;;;;;;10480595;28;20283;-74
2024/03/03 13:48:43;;;;;;;2.37;1.70;;;19.20;32.10;;;;;;10485031;28;20725;-74
2024/03/03 13:53:46;;;;;;;2.40;1.70;;;19.20;31.30;;;;;;10485615;28;20236;-74
2024/03/03 13:58:49;;;;;;;1.83;1.73;;;19.30;31.80;;;;;;10497888;28;20219;-74
2024/03/03 14:03:54;;;;;;;1.73;1.43;;;19.30;31.10;;;;;;10499553;28;20236;-77
2024/03/03 14:08:58;;;;;;;1.77;1.60;;;19.30;30.70;;;;;;10470929;28;20259;-77
2024/03/03 14:14:01;;;;;;;1.93;1.50;;;19.40;31.50;;;;;;10482556;28;20259;-77
2024/03/03 14:19:06;;;;;;;1.70;1.60;;;19.40;31.60;;;;;;10479474;28;20224;-77
2024/03/03 14:24:09;;;;;;;1.63;1.53;;;19.50;29.80;;;;;;10482383;28;20228;-77
2024/03/03 14:29:13;;;;;;;1.87;1.33;;;19.60;30.60;;;;;;10476708;28;20232;-76
2024/03/03 14:34:18;;;;;;;1.57;1.47;;;19.70;30.40;;;;;;10479272;28;20307;-76
2024/03/03 14:39:21;;;;;;;2.60;1.60;;;19.70;30.10;;;;;;10467899;28;20217;-76
2024/03/03 14:44:24;;;;;;;1.73;1.20;;;19.90;30.30;;;;;;10470538;28;20240;-77
2024/03/03 14:49:29;;;;;;;1.60;1.50;;;19.90;30.10;;;;;;10478100;28;20225;-78
2024/03/03 14:54:32;;;;;;;1.30;1.17;;;20.00;28.70;;;;;;10478580;28;20285;-77
2024/03/03 14:59:36;;;;;;;1.30;1.20;;;20.00;28.80;;;;;;10473493;28;20234;-77
2024/03/03 15:04:41;;;;;;;1.30;1.20;;;20.10;28.50;;;;;;10477444;28;20307;-77
2024/03/03 15:09:44;;;;;;;1.30;1.20;;;20.10;27.90;;;;;;10471068;28;20224;-77
2024/03/03 15:14:48;;;;;;;1.27;1.00;;;20.10;27.80;;;;;;10470211;28;20220;-78
2024/03/03 15:19:53;;;;;;;1.30;1.20;;;20.00;27.80;;;;;;10479596;28;20235;-76
2024/03/03 15:24:56;;;;;;;3.23;2.47;;;20.00;27.10;;;;;;10473184;28;20239;-78
2024/03/03 15:30:00;;;;;;;2.50;2.30;;;19.90;27.70;;;;;;10480143;28;20229;-77
2024/03/03 15:35:06;;;;;;;1.93;1.73;;;19.90;27.80;;;;;;10472308;28;20248;-77
2024/03/03 15:40:12;;;;;;;1.73;1.50;;;19.80;26.90;;;;;;10474836;28;20311;-77
2024/03/03 15:45:15;;;;;;;1.70;1.60;;;19.80;27.70;;;;;;10478250;28;20225;-78
2024/03/03 15:50:21;;;;;;;2.10;1.90;;;19.80;28.10;;;;;;10469549;28;20771;-77
2024/03/03 15:55:24;;;;;;;1.80;1.70;;;19.80;27.20;;;;;;10474844;28;20228;-78
2024/03/03 16:00:27;;;;;;;1.63;1.53;;;19.70;27.80;;;;;;10471250;28;20307;-78
2024/03/03 16:05:32;;;;;;;1.90;1.70;;;19.70;27.80;;;;;;10474520;28;20752;-77
2024/03/03 16:10:39;;;;;;;1.90;1.80;;;19.60;27.50;;;;;;10478801;28;20649;-76
2024/03/03 16:15:43;;;;;;;1.97;1.60;;;19.60;28.00;;;;;;10490989;28;20228;-76
2024/03/03 16:20:47;;;;;;;1.80;1.70;;;19.50;28.00;;;;;;10489898;28;20234;-75
2024/03/03 16:25:51;;;;;;;1.60;1.50;;;19.40;27.80;;;;;;10480312;28;20308;-76
2024/03/03 16:30:54;;;;;;;1.93;1.80;;;19.30;28.20;;;;;;10479104;28;20703;-76
2024/03/03 16:35:59;;;;;;;2.23;2.03;;;19.30;28.30;;;;;;10473455;28;20232;-76
2024/03/03 16:41:02;;;;;;;1.80;1.67;;;19.20;27.80;;;;;;10483517;28;20233;-75
2024/03/03 16:46:05;;;;;;;2.60;1.70;;;19.10;27.90;;;;;;10482519;28;20756;-76
2024/03/03 16:51:10;;;;;;;2.70;2.00;;;19.00;28.00;;;;;;10473225;28;20240;-74
2024/03/03 16:56:13;;;;;;;4.57;2.20;;;18.90;27.70;;;;;;10474060;28;20225;-76
2024/03/03 17:01:16;;;;;;;3.20;3.00;;;18.80;28.00;;;;;;10458422;28;20520;-73
2024/03/03 17:06:22;;;;;;;3.77;2.60;;;18.80;28.00;;;;;;10461786;28;20730;-77
2024/03/03 17:11:27;;;;;;;2.57;2.10;;;18.70;27.30;;;;;;10481510;28;20285;-76
2024/03/03 17:16:30;;;;;;;2.40;2.20;;;18.60;27.60;;;;;;10468159;28;20228;-76
2024/03/03 17:21:35;;;;;;;2.53;2.23;;;18.50;27.70;;;;;;10474055;28;20228;-76
2024/03/03 17:26:39;;;;;;;2.30;2.00;;;18.40;27.50;;;;;;10470767;28;20230;-77
2024/03/03 17:31:43;;;;;;;2.67;2.47;;;18.20;27.70;;;;;;10474906;28;20881;-76
2024/03/03 17:36:49;;;;;;;2.83;2.63;;;18.10;28.50;;;;;;10473208;28;20225;-78
2024/03/03 17:41:52;;;;;;;3.47;3.17;;;17.90;27.50;;;;;;10468210;28;20235;-77
2024/03/03 17:46:55;;;;;;;5.40;4.90;;;17.70;27.80;;;;;;10470825;28;20242;-76
2024/03/03 17:52:00;;;;;;;7.50;6.80;;;17.50;27.90;;;;;;10467238;28;20238;-76
2024/03/03 17:57:03;;;;;;;8.03;7.17;;;17.30;27.90;;;;;;10455743;28;20712;-76
2024/03/03 18:02:06;;;;;;;13.17;6.90;;;17.10;28.20;;;;;;10471592;28;20230;-76
2024/03/03 18:07:11;;;;;;;6.07;5.47;;;16.90;28.20;;;;;;10470659;28;20414;-77
2024/03/03 18:12:19;;;;;;;6.57;5.87;;;16.80;28.30;;;;;;10477545;28;20649;-75
2024/03/03 18:17:26;;;;;;;7.13;6.20;;;16.60;28.30;;;;;;10476493;28;20695;-76
2024/03/03 18:22:30;;;;;;;6.60;5.97;;;16.50;28.20;;;;;;10480765;28;20290;-75
2024/03/03 18:27:34;;;;;;;8.13;6.80;;;16.30;27.90;;;;;;10474305;28;20228;-75
2024/03/03 18:32:37;;;;;;;13.80;11.17;;;16.10;28.10;;;;;;10479503;28;20930;-75
2024/03/03 18:37:42;;;;;;;16.03;11.37;;;15.80;28.10;;;;;;10483254;28;20234;-75
2024/03/03 18:42:46;;;;;;;12.87;10.00;;;15.60;28.20;;;;;;10482970;28;20270;-75
2024/03/03 18:47:51;;;;;;;14.07;10.90;;;15.50;28.40;;;;;;10470842;28;20228;-76
2024/03/03 18:52:57;;;;;;;12.00;9.40;;;15.40;28.40;;;;;;10474399;28;20235;-75
2024/03/03 18:58:01;;;;;;;8.13;6.73;;;15.30;28.30;;;;;;10464680;28;20277;-76
2024/03/03 19:03:05;;;;;;;7.10;6.33;;;15.20;28.20;;;;;;10476990;28;20243;-75
2024/03/03 19:08:09;;;;;;;5.67;5.13;;;15.10;28.00;;;;;;10471679;28;20231;-75
2024/03/03 19:13:13;;;;;;;5.13;4.63;;;15.00;28.20;;;;;;10470799;28;20229;-75
2024/03/03 19:18:16;;;;;;;5.47;4.87;;;14.90;28.30;;;;;;10485509;28;20228;-73
2024/03/03 19:23:21;;;;;;;4.70;4.30;;;14.80;28.30;;;;;;10485387;28;20239;-75
2024/03/03 19:28:25;;;;;;;5.57;4.30;;;14.80;28.10;;;;;;10469468;28;20707;-75
2024/03/03 19:33:28;;;;;;;4.40;4.00;;;14.60;28.10;;;;;;10484579;28;20240;-74
2024/03/03 19:38:33;;;;;;;4.30;3.90;;;14.50;28.20;;;;;;10484292;28;20251;-74
2024/03/03 19:43:36;;;;;;;4.73;3.77;;;14.50;28.20;;;;;;10479247;28;20730;-76
2024/03/03 19:48:40;;;;;;;5.33;3.80;;;14.40;28.30;;;;;;10492705;28;20228;-77
2024/03/03 19:53:45;;;;;;;3.80;3.50;;;14.30;28.40;;;;;;10494792;28;20230;-77
2024/03/03 19:58:49;;;;;;;4.37;3.43;;;14.20;28.00;;;;;;10493469;28;20224;-75
2024/03/03 20:03:52;;;;;;;3.57;3.27;;;14.20;28.50;;;;;;10492081;28;20281;-77
2024/03/03 20:08:58;;;;;;;4.87;3.17;;;14.10;28.50;;;;;;10502438;28;20714;-77
2024/03/03 20:14:01;;;;;;;3.47;3.17;;;14.00;28.30;;;;;;10496122;28;20301;-79
2024/03/03 20:19:05;;;;;;;3.90;3.60;;;14.00;28.80;;;;;;10496649;28;20234;-78
2024/03/03 20:24:12;;;;;;;3.73;3.43;;;14.00;28.70;;;;;;10496910;28;20236;-77
2024/03/03 20:29:16;;;;;;;3.93;3.50;;;13.90;28.40;;;;;;10493557;28;20308;-77
2024/03/03 20:34:19;;;;;;;5.10;3.60;;;13.90;28.80;;;;;;10494203;28;20323;-75
2024/03/03 20:39:23;;;;;;;4.00;3.57;;;13.80;28.90;;;;;;10491700;28;20232;-76
2024/03/03 20:44:27;;;;;;;4.03;3.50;;;13.80;28.80;;;;;;10491324;28;20224;-76
2024/03/03 20:49:30;;;;;;;5.73;3.60;;;13.80;28.80;;;;;;10491043;28;20238;-76
2024/03/03 20:54:35;;;;;;;4.50;4.10;;;13.70;28.80;;;;;;10490923;28;20228;-76
2024/03/03 20:59:39;;;;;;;4.63;4.23;;;13.70;28.90;;;;;;10489585;28;20315;-77
2024/03/03 21:04:44;;;;;;;4.60;4.20;;;13.60;28.90;;;;;;10489593;28;20248;-76
2024/03/03 21:09:49;;;;;;;3.80;3.50;;;13.50;29.00;;;;;;10490328;28;20315;-76
2024/03/03 21:14:53;;;;;;;3.63;3.13;;;13.40;29.00;;;;;;10492229;28;20314;-76
2024/03/03 21:19:56;;;;;;;3.47;2.90;;;13.40;29.00;;;;;;10491367;28;20236;-77
2024/03/03 21:25:00;;;;;;;2.63;2.43;;;13.30;28.90;;;;;;10491470;28;20224;-77
2024/03/03 21:30:05;;;;;;;3.27;2.97;;;13.10;29.00;;;;;;10490052;28;20228;-77
2024/03/03 21:35:08;;;;;;;3.33;3.00;;;13.00;29.10;;;;;;10491056;28;20303;-76
2024/03/03 21:40:14;;;;;;;4.03;3.03;;;12.90;29.10;;;;;;10490727;28;20275;-77
2024/03/03 21:45:18;;;;;;;3.67;3.03;;;12.80;29.30;;;;;;10490854;28;20228;-76
2024/03/03 21:50:23;;;;;;;3.37;3.07;;;12.70;29.30;;;;;;10489992;28;21647;-77
2024/03/03 21:55:28;;;;;;;4.03;3.63;;;12.60;29.30;;;;;;10490493;28;20260;-77
2024/03/03 22:00:31;;;;;;;3.93;3.63;;;12.50;29.40;;;;;;10489782;28;20701;-77
2024/03/03 22:05:35;;;;;;;5.10;4.60;;;12.40;29.60;;;;;;10489469;28;20248;-77
2024/03/03 22:10:40;;;;;;;4.67;4.27;;;12.30;29.90;;;;;;10489449;28;20293;-77
2024/03/03 22:15:43;;;;;;;4.00;3.57;;;12.20;29.80;;;;;;10489375;28;20224;-77
2024/03/03 22:20:46;;;;;;;3.73;3.43;;;12.10;29.70;;;;;;10489579;28;20251;-77
2024/03/03 22:25:51;;;;;;;4.60;3.27;;;12.00;29.70;;;;;;10489144;28;20270;-77
2024/03/03 22:30:56;;;;;;;4.60;3.60;;;12.00;29.70;;;;;;10488717;28;20235;-77
2024/03/03 22:35:59;;;;;;;3.77;3.40;;;11.90;29.60;;;;;;10489082;28;20698;-77
2024/03/03 22:41:06;;;;;;;4.00;3.60;;;11.80;29.60;;;;;;10488281;28;20320;-77
2024/03/03 22:46:09;;;;;;;4.50;3.53;;;11.80;30.00;;;;;;10488684;28;20235;-76
2024/03/03 22:51:12;;;;;;;4.13;3.73;;;11.70;30.00;;;;;;10488082;28;20701;-76
2024/03/03 22:56:16;;;;;;;3.77;3.40;;;11.70;30.00;;;;;;10488376;28;20239;-77
2024/03/03 23:01:20;;;;;;;5.67;4.20;;;11.70;30.30;;;;;;10488003;28;20673;-76
2024/03/03 23:06:23;;;;;;;4.60;4.20;;;11.70;30.20;;;;;;10487734;28;20231;-76
2024/03/03 23:11:29;;;;;;;3.97;3.60;;;11.70;30.20;;;;;;10488234;28;20228;-77
2024/03/03 23:16:32;;;;;;;5.10;4.33;;;11.60;30.20;;;;;;10489790;28;20636;-77
2024/03/03 23:21:35;;;;;;;5.20;4.70;;;11.60;30.30;;;;;;10496170;28;20246;-77
2024/03/03 23:26:43;;;;;;;5.57;4.47;;;11.50;30.20;;;;;;10496226;28;20615;-77
2024/03/03 23:31:47;;;;;;;5.00;4.50;;;11.50;30.70;;;;;;10495677;28;20725;-77
2024/03/03 23:36:50;;;;;;;5.87;4.60;;;11.40;30.60;;;;;;10495934;28;20307;-77
2024/03/03 23:41:54;;;;;;;4.77;4.37;;;11.30;30.50;;;;;;10495769;28;20228;-77
2024/03/03 23:46:58;;;;;;;4.97;4.43;;;11.20;30.70;;;;;;10495143;28;20250;-77
2024/03/03 23:52:01;;;;;;;5.30;4.27;;;11.10;30.60;;;;;;10493473;28;20243;-77
2024/03/03 23:57:06;;;;;;;4.80;4.30;;;11.10;30.90;;;;;;10494643;28;20244;-77
